Time;durP1;ratioP1;P1;durP2;ratioP2;P2;SDS_P1;SDS_P2;PMS_P1;PMS_P2;Temp;Humidity;BMP_temperature;BMP_pressure;BME280_temperature;BME280_humidity;BME280_pressure;Samples;Min_cycle;Max_cycle;Signal;HPM_P1;HPM_P2
2021/12/15 00:00:17;;;;;;;23.53;10.30;;;;;;;0.07;86.85;96544.67;1739770;82;21035;-63
2021/12/15 00:02:50;;;;;;;18.80;8.97;;;;;;;0.05;86.82;96547.63;1739454;82;21638;-63
2021/12/15 00:05:21;;;;;;;19.10;9.83;;;;;;;0.05;86.81;96547.23;1739729;82;21059;-63
2021/12/15 00:07:44;;;;;;;19.63;10.53;;;;;;;0.03;86.76;96558.38;1739127;82;21037;-63
2021/12/15 00:10:11;;;;;;;17.77;9.53;;;;;;;0.01;86.88;96554.84;1739417;81;21146;-63
2021/12/15 00:12:38;;;;;;;20.07;9.70;;;;;;;0.01;86.88;96555.72;1739192;82;21023;-63
2021/12/15 00:15:07;;;;;;;16.23;9.20;;;;;;;0.06;86.86;96546.81;1739783;82;21014;-63
2021/12/15 00:17:34;;;;;;;18.20;9.77;;;;;;;0.06;86.65;96553.30;1739770;82;20988;-63
2021/12/15 00:20:01;;;;;;;16.70;9.67;;;;;;;0.01;86.74;96554.42;1739377;81;21047;-63
2021/12/15 00:22:27;;;;;;;13.50;7.17;;;;;;;0.00;86.72;96559.16;1739393;82;21039;-63
2021/12/15 00:24:54;;;;;;;17.40;8.90;;;;;;;-0.04;86.74;96558.55;1739394;81;20988;-63
2021/12/15 00:27:21;;;;;;;17.40;9.40;;;;;;;-0.08;86.80;96551.05;1739165;82;21107;-63
2021/12/15 00:29:48;;;;;;;20.77;9.97;;;;;;;-0.07;86.81;96547.66;1739499;82;21039;-63
2021/12/15 00:32:14;;;;;;;17.23;9.33;;;;;;;-0.02;86.80;96543.94;1739473;81;21494;-63
2021/12/15 00:34:42;;;;;;;17.70;9.97;;;;;;;0.03;86.83;96544.11;1739468;81;21031;-63
2021/12/15 00:37:09;;;;;;;18.97;9.53;;;;;;;0.04;86.64;96545.45;1739418;82;21577;-64
2021/12/15 00:39:37;;;;;;;18.47;9.27;;;;;;;0.03;86.54;96548.88;1739575;82;21052;-63
2021/12/15 00:42:05;;;;;;;17.53;8.40;;;;;;;-0.01;86.51;96546.56;1739003;82;21547;-65
2021/12/15 00:44:32;;;;;;;17.90;9.10;;;;;;;-0.01;86.59;96545.69;1739635;82;21047;-64
2021/12/15 00:47:01;;;;;;;17.30;8.83;;;;;;;0.02;86.55;96550.11;1739626;82;21059;-64
2021/12/15 00:49:28;;;;;;;20.70;9.23;;;;;;;-0.05;86.49;96551.58;1721363;82;21048;-63
2021/12/15 00:51:55;;;;;;;16.53;8.73;;;;;;;-0.06;86.54;96544.64;1706605;84;21083;-63
2021/12/15 00:54:23;;;;;;;18.80;9.67;;;;;;;-0.09;86.61;96537.62;1706438;84;21542;-63
2021/12/15 00:56:53;;;;;;;17.07;8.40;;;;;;;-0.04;86.68;96541.27;1706464;84;21024;-63
2021/12/15 00:59:21;;;;;;;16.20;8.80;;;;;;;-0.02;86.62;96537.45;1706687;84;21064;-63
2021/12/15 01:01:50;;;;;;;18.97;9.87;;;;;;;-0.06;86.49;96538.15;1706602;83;20969;-63
2021/12/15 01:04:19;;;;;;;16.13;8.57;;;;;;;-0.11;86.65;96532.78;1706816;84;21510;-63
2021/12/15 01:06:52;;;;;;;17.40;9.53;;;;;;;-0.15;86.80;96532.61;1706809;84;21474;-63
2021/12/15 01:09:27;;;;;;;18.07;9.80;;;;;;;-0.14;86.84;96531.80;1706595;84;21548;-63
2021/12/15 01:19:52;;;;;;;16.47;9.20;;;;;;;-0.16;86.82;96538.63;1706798;84;21011;-63
2021/12/15 01:22:28;;;;;;;18.63;9.57;;;;;;;-0.18;86.96;96537.69;1706420;83;21035;-64
2021/12/15 01:25:00;;;;;;;19.20;9.67;;;;;;;-0.19;87.16;96542.00;1706786;83;21020;-64
2021/12/15 01:27:27;;;;;;;19.63;9.30;;;;;;;-0.15;87.10;96540.39;1706670;83;21558;-64
2021/12/15 01:29:54;;;;;;;18.70;10.13;;;;;;;-0.16;87.17;96541.23;1706585;84;21032;-64
2021/12/15 01:32:22;;;;;;;18.33;9.40;;;;;;;-0.16;87.21;96543.41;1706407;84;21055;-64
2021/12/15 01:34:49;;;;;;;18.13;9.30;;;;;;;-0.16;87.23;96542.52;1684616;84;21016;-64
2021/12/15 01:37:17;;;;;;;21.47;10.10;;;;;;;-0.15;87.26;96533.52;1706303;83;21024;-63
2021/12/15 01:39:45;;;;;;;18.30;9.33;;;;;;;-0.14;87.27;96526.61;1706725;84;21051;-63
2021/12/15 01:42:13;;;;;;;18.43;9.13;;;;;;;-0.13;87.25;96532.25;1706698;84;21023;-63
2021/12/15 01:47:26;;;;;;;23.13;11.00;;;;;;;-0.11;87.35;96539.27;1706824;84;21008;-63
2021/12/15 01:49:54;;;;;;;21.43;10.13;;;;;;;-0.05;87.40;96536.92;1728995;82;21106;-65
2021/12/15 01:52:32;;;;;;;19.30;9.43;;;;;;;0.03;87.40;96537.62;1743797;82;21602;-64
2021/12/15 01:55:07;;;;;;;19.60;10.10;;;;;;;0.04;87.07;96541.55;1743639;82;21026;-64
2021/12/15 01:57:36;;;;;;;21.23;9.87;;;;;;;0.09;87.22;96539.14;1743988;82;21015;-64
2021/12/15 02:00:27;;;;;;;21.60;10.50;;;;;;;0.15;87.20;96537.66;1744070;82;21070;-64
2021/12/15 02:02:57;;;;;;;21.07;10.80;;;;;;;0.13;86.77;96535.42;1744037;82;21031;-63
2021/12/15 02:05:27;;;;;;;20.90;10.97;;;;;;;0.19;87.02;96535.63;1743895;82;21011;-63
2021/12/15 02:07:54;;;;;;;23.43;10.77;;;;;;;0.24;86.86;96533.63;1744195;82;21003;-64
2021/12/15 02:10:25;;;;;;;22.10;11.43;;;;;;;0.20;86.51;96526.13;1744134;82;21090;-64
2021/12/15 02:12:53;;;;;;;21.57;10.83;;;;;;;0.20;86.69;96531.31;1743876;82;21350;-64
2021/12/15 02:15:28;;;;;;;22.20;11.10;;;;;;;0.16;86.60;96532.05;1743782;82;21038;-63
2021/12/15 02:17:56;;;;;;;22.50;11.80;;;;;;;0.15;86.79;96527.28;1744290;82;21053;-63
2021/12/15 02:20:35;;;;;;;23.00;11.87;;;;;;;0.15;86.73;96528.58;1743992;82;21018;-63
2021/12/15 02:23:03;;;;;;;23.13;11.03;;;;;;;0.11;86.59;96519.33;1743919;82;21593;-63
2021/12/15 02:25:31;;;;;;;27.13;11.73;;;;;;;0.10;86.58;96518.84;1743769;82;21018;-63
2021/12/15 02:28:01;;;;;;;24.27;11.83;;;;;;;0.05;86.49;96521.67;1743966;82;20975;-63
2021/12/15 02:30:46;;;;;;;28.60;13.73;;;;;;;-0.09;86.78;96536.33;1744121;82;21042;-63
2021/12/15 02:38:32;;;;;;;27.50;12.53;;;;;;;-0.18;87.33;96531.20;1744057;82;21552;-63
2021/12/15 02:41:07;;;;;;;23.67;12.57;;;;;;;-0.21;87.52;96529.38;1744164;82;21030;-64
2021/12/15 02:43:27;;;;;;;25.23;11.90;;;;;;;-0.23;87.66;96528.05;1742710;82;21557;-64
2021/12/15 02:45:54;;;;;;;24.67;11.67;;;;;;;-0.23;87.84;96522.86;1743780;82;21023;-64
2021/12/15 02:48:21;;;;;;;28.93;13.67;;;;;;;-0.22;87.92;96521.14;1743986;82;21026;-64
2021/12/15 02:50:48;;;;;;;29.30;13.10;;;;;;;-0.20;87.93;96518.20;1763070;81;21054;-64
2021/12/15 02:53:16;;;;;;;23.00;11.80;;;;;;;-0.18;87.89;96520.83;1768129;81;21141;-64
2021/12/15 02:55:43;;;;;;;25.87;11.67;;;;;;;-0.16;87.90;96520.48;1768824;81;21100;-63
2021/12/15 02:58:11;;;;;;;22.20;10.70;;;;;;;-0.13;87.83;96525.77;1768427;81;21061;-63
2021/12/15 03:00:55;;;;;;;26.93;12.63;;;;;;;-0.15;87.59;96516.66;1768105;81;21102;-63
2021/12/15 03:06:11;;;;;;;24.50;11.27;;;;;;;-0.18;87.50;96526.02;1768493;81;21026;-63
2021/12/15 03:16:50;;;;;;;25.37;12.30;;;;;;;-0.18;87.84;96519.11;1741655;81;21030;-63
2021/12/15 03:19:17;;;;;;;26.23;12.17;;;;;;;-0.18;87.83;96524.30;1768240;81;21026;-63
2021/12/15 03:21:44;;;;;;;21.50;10.40;;;;;;;-0.16;87.83;96529.14;1768338;81;21030;-63
2021/12/15 03:24:18;;;;;;;30.57;12.97;;;;;;;-0.13;87.71;96528.36;1768509;81;21081;-64
2021/12/15 03:27:00;;;;;;;31.48;14.25;;;;;;;-0.17;87.78;96533.86;1768829;81;21456;-65
2021/12/15 03:35:16;;;;;;;28.17;13.63;;;;;;;-0.18;87.92;96537.27;1768240;81;21034;-64
2021/12/15 03:37:35;;;;;;;30.07;13.47;;;;;;;-0.08;88.17;96530.30;1765355;81;21547;-64
2021/12/15 03:40:15;;;;;;;31.17;13.43;;;;;;;-0.04;87.83;96518.34;1768351;81;21073;-64
2021/12/15 03:42:47;;;;;;;28.77;13.40;;;;;;;-0.05;87.67;96516.17;1768425;81;20998;-64
2021/12/15 03:45:19;;;;;;;27.57;13.00;;;;;;;0.02;88.02;96508.59;1767729;81;21030;-64
2021/12/15 03:47:49;;;;;;;33.43;14.77;;;;;;;-0.02;87.50;96520.17;1768264;81;20996;-64
2021/12/15 03:50:19;;;;;;;29.00;14.13;;;;;;;-0.07;87.51;96525.59;1754878;81;21038;-64
2021/12/15 03:52:48;;;;;;;30.97;14.70;;;;;;;-0.11;87.52;96525.00;1744328;82;21023;-64
2021/12/15 03:55:20;;;;;;;32.13;15.73;;;;;;;-0.11;87.49;96524.13;1744169;82;20976;-64
2021/12/15 03:57:47;;;;;;;28.93;13.03;;;;;;;-0.16;87.61;96522.66;1744170;82;20992;-64
2021/12/15 04:00:15;;;;;;;29.63;13.43;;;;;;;-0.24;87.52;96526.25;1743697;82;21031;-64
2021/12/15 04:02:44;;;;;;;23.80;11.03;;;;;;;-0.31;87.61;96517.77;1744242;82;21554;-64
2021/12/15 04:05:13;;;;;;;25.60;12.93;;;;;;;-0.35;87.37;96522.39;1744159;82;21031;-64
2021/12/15 04:07:41;;;;;;;29.07;11.77;;;;;;;-0.41;87.99;96526.02;1744158;82;21031;-64
2021/12/15 04:10:13;;;;;;;26.63;11.57;;;;;;;-0.38;88.06;96522.24;1743860;82;21066;-64
2021/12/15 04:12:40;;;;;;;27.53;13.00;;;;;;;-0.34;87.99;96525.44;1744168;82;21498;-64
2021/12/15 04:15:27;;;;;;;27.63;12.40;;;;;;;-0.34;87.94;96537.11;1743725;82;21035;-65
2021/12/15 04:17:50;;;;;;;32.17;13.53;;;;;;;-0.42;88.02;96546.30;1742236;82;21046;-64
2021/12/15 04:20:20;;;;;;;32.60;13.70;;;;;;;-0.47;88.19;96557.78;1744107;82;21066;-64
2021/12/15 04:22:48;;;;;;;31.00;13.37;;;;;;;-0.50;88.37;96557.67;1744232;82;20995;-64
2021/12/15 04:25:22;;;;;;;31.57;13.43;;;;;;;-0.57;88.71;96549.17;1743801;82;21541;-64
2021/12/15 04:28:07;;;;;;;38.00;16.53;;;;;;;-0.59;88.83;96552.53;1744251;82;20987;-64
2021/12/15 04:30:39;;;;;;;34.13;15.57;;;;;;;-0.62;88.86;96549.41;1743736;82;21532;-64
2021/12/15 04:33:13;;;;;;;35.57;17.40;;;;;;;-0.57;88.90;96550.89;1744024;82;21476;-64
2021/12/15 04:35:42;;;;;;;33.00;16.07;;;;;;;-0.56;88.96;96550.93;1744331;82;20976;-64
2021/12/15 04:38:12;;;;;;;42.33;18.07;;;;;;;-0.55;88.90;96554.44;1743145;82;21031;-64
2021/12/15 04:40:41;;;;;;;35.13;16.93;;;;;;;-0.59;88.93;96548.23;1744157;82;21031;-65
2021/12/15 04:43:08;;;;;;;31.77;14.50;;;;;;;-0.65;89.17;96554.48;1744139;82;21022;-65
2021/12/15 04:45:35;;;;;;;30.37;13.30;;;;;;;-0.73;89.28;96560.66;1743453;82;21035;-65
2021/12/15 04:48:03;;;;;;;28.70;12.97;;;;;;;-0.74;89.27;96563.17;1743854;82;21074;-64
2021/12/15 04:50:32;;;;;;;27.70;12.97;;;;;;;-0.79;89.37;96562.09;1756759;81;21030;-65
2021/12/15 04:53:02;;;;;;;31.37;14.90;;;;;;;-0.79;89.39;96566.86;1768247;81;21531;-65
2021/12/15 04:55:29;;;;;;;29.70;13.20;;;;;;;-0.79;89.55;96566.86;1768595;81;21057;-65
2021/12/15 04:57:58;;;;;;;27.43;12.37;;;;;;;-0.79;89.54;96565.56;1768631;81;21061;-65
2021/12/15 05:00:29;;;;;;;31.07;13.40;;;;;;;-0.78;89.25;96573.84;1768229;81;21065;-65
2021/12/15 05:02:58;;;;;;;28.50;13.80;;;;;;;-0.75;89.29;96569.19;1768662;81;21062;-64
2021/12/15 05:05:27;;;;;;;24.97;12.33;;;;;;;-0.72;89.00;96574.06;1768571;81;21472;-65
2021/12/15 05:07:55;;;;;;;22.70;11.60;;;;;;;-0.75;88.81;96567.89;1768408;81;21010;-64
2021/12/15 05:10:23;;;;;;;30.73;14.33;;;;;;;-0.81;88.50;96572.39;1768555;81;20998;-64
2021/12/15 05:12:51;;;;;;;24.73;12.37;;;;;;;-0.83;88.55;96574.44;1768336;81;21876;-64
2021/12/15 05:15:18;;;;;;;25.83;13.27;;;;;;;-0.92;88.45;96569.78;1768057;81;21057;-64
2021/12/15 05:17:46;;;;;;;22.10;11.27;;;;;;;-0.85;88.44;96578.70;1768176;81;20998;-64
2021/12/15 05:20:14;;;;;;;22.80;11.37;;;;;;;-0.89;88.21;96575.08;1768318;81;21054;-64
2021/12/15 05:22:41;;;;;;;23.13;11.73;;;;;;;-1.03;88.25;96576.20;1768003;81;21627;-64
2021/12/15 05:25:09;;;;;;;26.23;11.90;;;;;;;-1.07;88.23;96576.92;1768192;81;21046;-64
2021/12/15 05:27:39;;;;;;;29.70;13.27;;;;;;;-1.16;88.22;96583.88;1768305;81;21149;-64
2021/12/15 05:30:09;;;;;;;23.93;11.23;;;;;;;-1.21;88.29;96581.13;1768456;81;21476;-64
2021/12/15 05:32:36;;;;;;;27.00;12.40;;;;;;;-1.26;88.25;96581.72;1768629;81;21504;-65
2021/12/15 05:35:06;;;;;;;26.20;11.07;;;;;;;-1.23;88.35;96574.98;1768322;81;20994;-64
2021/12/15 05:37:33;;;;;;;24.80;12.33;;;;;;;-1.23;88.25;96582.75;1768502;81;21563;-64
2021/12/15 05:40:00;;;;;;;19.63;10.03;;;;;;;-1.24;88.10;96583.97;1768523;81;20991;-64
2021/12/15 05:42:27;;;;;;;21.73;10.40;;;;;;;-1.22;88.12;96579.33;1768144;81;21073;-64
2021/12/15 05:44:55;;;;;;;22.53;10.70;;;;;;;-1.23;88.05;96572.81;1768426;81;21002;-64
2021/12/15 05:47:24;;;;;;;26.77;13.73;;;;;;;-1.22;87.87;96586.22;1768437;81;21023;-65
2021/12/15 05:49:52;;;;;;;36.30;22.10;;;;;;;-1.24;87.50;96583.55;1765310;81;21048;-64
2021/12/15 05:52:20;;;;;;;35.73;22.73;;;;;;;-1.30;87.21;96583.31;1744867;82;21023;-64
2021/12/15 05:54:47;;;;;;;50.63;21.37;;;;;;;-1.37;87.06;96591.20;1739662;82;20999;-64
2021/12/15 05:57:14;;;;;;;35.23;14.37;;;;;;;-1.38;87.15;96584.27;1739121;82;21063;-64
2021/12/15 05:59:41;;;;;;;31.60;13.50;;;;;;;-1.36;87.55;96597.27;1739190;82;21063;-66
2021/12/15 06:02:08;;;;;;;27.67;12.17;;;;;;;-1.34;87.32;96593.05;1739445;82;21028;-64
2021/12/15 06:04:35;;;;;;;20.37;10.33;;;;;;;-1.34;87.27;96596.51;1739594;82;21027;-64
2021/12/15 06:07:04;;;;;;;28.37;12.33;;;;;;;-1.36;87.32;96592.09;1739599;82;21516;-63
2021/12/15 06:09:32;;;;;;;22.00;11.70;;;;;;;-1.37;87.23;96600.69;1739535;82;21071;-66
2021/12/15 06:12:00;;;;;;;16.80;8.87;;;;;;;-1.37;87.10;96598.09;1739503;82;21470;-66
2021/12/15 06:14:28;;;;;;;17.80;8.50;;;;;;;-1.35;87.29;96599.93;1739492;82;21057;-67
2021/12/15 06:16:59;;;;;;;15.83;8.40;;;;;;;-1.27;87.81;96606.73;1739500;81;20948;-66
2021/12/15 06:19:27;;;;;;;15.73;8.40;;;;;;;-1.21;87.47;96615.17;1738772;82;21082;-69
2021/12/15 06:21:53;;;;;;;16.27;8.13;;;;;;;-1.24;87.07;96617.22;1739714;82;21034;-68
2021/12/15 06:24:20;;;;;;;16.00;7.53;;;;;;;-1.22;87.18;96618.17;1739248;82;21110;-65
2021/12/15 06:26:47;;;;;;;16.27;6.93;;;;;;;-1.25;86.96;96624.94;1739734;82;21059;-67
2021/12/15 06:29:13;;;;;;;13.60;7.03;;;;;;;-1.24;87.06;96617.22;1739419;81;21034;-65
2021/12/15 06:31:40;;;;;;;14.50;7.00;;;;;;;-1.23;87.07;96624.19;1739524;82;21087;-65
2021/12/15 06:34:07;;;;;;;22.20;8.40;;;;;;;-1.22;86.70;96625.06;1739838;81;21489;-63
2021/12/15 06:36:35;;;;;;;19.20;8.43;;;;;;;-1.21;86.91;96629.03;1739657;81;20980;-66
2021/12/15 06:39:05;;;;;;;11.63;6.27;;;;;;;-1.21;86.63;96630.32;1739318;82;21007;-64
2021/12/15 06:41:32;;;;;;;19.90;9.50;;;;;;;-1.20;86.59;96635.08;1739606;82;21068;-66
2021/12/15 06:43:59;;;;;;;27.43;11.03;;;;;;;-1.19;86.73;96642.02;1716479;82;21079;-67
2021/12/15 06:59:56;;;;;;;28.63;13.23;;;;;;;-0.89;84.94;96656.28;1743769;82;21081;-67
2021/12/15 07:02:23;;;;;;;26.97;13.27;;;;;;;-0.96;84.61;96654.27;1743940;82;20996;-66
2021/12/15 07:04:50;;;;;;;32.13;15.47;;;;;;;-0.93;84.59;96651.80;1746371;82;21525;-66
2021/12/15 07:07:17;;;;;;;30.27;14.93;;;;;;;-0.90;84.47;96654.52;1744008;82;21059;-66
2021/12/15 07:09:44;;;;;;;33.27;16.53;;;;;;;-0.91;84.42;96657.03;1743896;82;21670;-66
2021/12/15 07:12:10;;;;;;;31.63;15.63;;;;;;;-0.85;84.28;96661.62;1744071;82;21082;-65
2021/12/15 07:14:37;;;;;;;30.43;15.30;;;;;;;-0.73;84.59;96669.87;1743859;82;21082;-67
2021/12/15 07:17:09;;;;;;;33.43;16.13;;;;;;;-0.61;84.16;96666.50;1744359;82;20995;-67
2021/12/15 07:19:44;;;;;;;38.53;19.73;;;;;;;-0.47;83.75;96661.91;1743512;82;21071;-67
2021/12/15 07:22:30;;;;;;;24.80;12.90;;;;;;;-0.36;83.93;96661.04;1742329;82;21512;-68
2021/12/15 07:24:44;;;;;;;22.07;11.43;;;;;;;-0.30;82.69;96658.71;1742060;82;21015;-69
2021/12/15 07:27:10;;;;;;;25.73;10.50;;;;;;;-0.29;81.68;96658.75;1744042;82;21516;-67
2021/12/15 07:29:37;;;;;;;61.13;26.17;;;;;;;-0.34;80.97;96663.29;1743787;82;21126;-69
2021/12/15 07:32:05;;;;;;;454.63;237.63;;;;;;;-0.33;81.34;96659.48;1744029;82;21023;-67
2021/12/15 07:34:32;;;;;;;74.97;35.60;;;;;;;-0.24;81.08;96668.02;1743756;82;21573;-68
2021/12/15 07:36:59;;;;;;;19.60;9.53;;;;;;;-0.16;80.90;96660.13;1740458;82;21032;-69
2021/12/15 07:39:25;;;;;;;51.80;30.33;;;;;;;-0.11;79.93;96662.49;1740777;82;21493;-67
2021/12/15 07:41:55;;;;;;;21.73;12.57;;;;;;;-0.08;79.67;96669.09;1741761;82;21027;-67
2021/12/15 07:44:22;;;;;;;17.83;11.00;;;;;;;0.04;80.48;96669.99;1741854;82;21091;-67
2021/12/15 07:46:52;;;;;;;20.87;15.13;;;;;;;0.06;78.95;96666.17;1744049;82;20999;-67
2021/12/15 07:49:21;;;;;;;16.80;9.27;;;;;;;0.12;78.95;96663.39;1744032;82;21027;-67
2021/12/15 07:51:52;;;;;;;14.43;8.00;;;;;;;0.18;79.33;96665.36;1761888;81;21022;-67
2021/12/15 07:54:19;;;;;;;14.00;8.33;;;;;;;0.24;79.65;96672.48;1768332;81;21018;-68
2021/12/15 07:56:47;;;;;;;22.57;10.80;;;;;;;0.26;79.17;96676.03;1768283;81;20994;-66
2021/12/15 07:59:14;;;;;;;22.90;10.43;;;;;;;0.33;80.24;96681.94;1768114;81;21074;-66
2021/12/15 08:01:41;;;;;;;18.93;9.83;;;;;;;0.35;79.81;96681.17;1768212;81;21061;-67
2021/12/15 08:04:26;;;;;;;27.83;10.97;;;;;;;0.29;77.22;96682.63;1768063;81;21066;-66
2021/12/15 08:06:53;;;;;;;21.23;10.47;;;;;;;0.19;76.71;96682.69;1768647;81;21058;-66
2021/12/15 08:09:22;;;;;;;22.33;9.73;;;;;;;0.13;77.25;96688.53;1767968;81;21006;-66
2021/12/15 08:11:50;;;;;;;20.80;10.30;;;;;;;0.04;77.35;96684.27;1768580;81;21022;-65
2021/12/15 08:14:17;;;;;;;23.60;13.57;;;;;;;0.04;77.55;96685.98;1768535;81;21022;-66
2021/12/15 08:16:43;;;;;;;55.80;30.63;;;;;;;0.03;78.07;96682.51;1768309;81;20962;-67
2021/12/15 08:19:14;;;;;;;18.37;10.23;;;;;;;0.11;78.50;96682.39;1768574;81;20983;-68
2021/12/15 08:21:39;;;;;;;21.00;10.27;;;;;;;0.24;78.91;96681.16;1768119;81;21536;-66
2021/12/15 08:24:06;;;;;;;19.67;11.67;;;;;;;0.33;78.95;96686.70;1768502;81;21014;-65
2021/12/15 08:26:33;;;;;;;12.00;7.73;;;;;;;0.49;79.19;96694.66;1736390;81;21045;-66
2021/12/15 08:29:00;;;;;;;16.33;9.03;;;;;;;0.56;77.06;96683.68;1768388;81;20994;-65
2021/12/15 08:31:26;;;;;;;20.90;11.27;;;;;;;0.58;77.08;96692.42;1768194;81;20986;-67
2021/12/15 08:33:53;;;;;;;20.20;11.00;;;;;;;0.61;77.19;96687.33;1736486;81;21105;-68
2021/12/15 08:36:20;;;;;;;22.50;11.80;;;;;;;0.68;77.45;96688.84;1768278;81;21489;-66
2021/12/15 08:38:49;;;;;;;22.67;13.47;;;;;;;0.68;76.83;96679.75;1767946;81;20990;-65
2021/12/15 08:41:23;;;;;;;19.07;10.13;;;;;;;0.69;76.56;96679.83;1768156;81;21010;-65
2021/12/15 08:43:50;;;;;;;22.50;10.70;;;;;;;0.74;76.98;96677.40;1755504;81;21002;-66
2021/12/15 08:46:22;;;;;;;19.80;10.57;;;;;;;0.75;76.39;96679.16;1762925;80;21005;-67
2021/12/15 08:48:50;;;;;;;15.37;8.33;;;;;;;0.81;76.17;96683.30;1751275;81;21029;-67
2021/12/15 08:51:25;;;;;;;14.73;8.97;;;;;;;0.84;76.61;96684.28;1755715;81;20990;-66
2021/12/15 08:53:49;;;;;;;21.95;10.53;;;;;;;0.91;76.73;96676.30;1760091;81;21109;-67
2021/12/15 08:56:16;;;;;;;17.50;9.43;;;;;;;0.95;76.33;96674.26;1779378;81;21540;-67
2021/12/15 08:58:43;;;;;;;20.93;10.43;;;;;;;0.99;76.53;96677.87;1779490;81;21051;-68
2021/12/15 09:01:09;;;;;;;21.87;11.03;;;;;;;1.00;76.11;96671.41;1759530;81;21014;-69
2021/12/15 09:03:38;;;;;;;20.73;10.63;;;;;;;1.01;75.96;96677.52;1760242;81;21050;-68
2021/12/15 09:06:05;;;;;;;24.40;11.70;;;;;;;1.00;75.87;96679.20;1759930;81;21536;-65
2021/12/15 09:08:32;;;;;;;18.37;10.27;;;;;;;0.99;75.71;96676.15;1760166;81;20998;-66
2021/12/15 09:11:04;;;;;;;18.00;10.60;;;;;;;0.94;75.55;96676.83;1771591;80;21493;-66
2021/12/15 09:13:31;;;;;;;17.80;8.80;;;;;;;0.88;75.70;96673.56;1731618;81;21055;-65
2021/12/15 09:16:03;;;;;;;16.57;9.73;;;;;;;0.71;75.67;96671.68;1727811;82;21023;-67
2021/12/15 09:18:30;;;;;;;17.67;10.03;;;;;;;0.64;76.01;96678.77;1718858;82;21004;-65
2021/12/15 09:20:57;;;;;;;16.73;9.13;;;;;;;0.58;76.31;96677.22;1769220;81;21019;-65
2021/12/15 09:23:24;;;;;;;19.73;10.43;;;;;;;0.61;76.83;96674.77;1770255;80;20993;-65
2021/12/15 09:25:51;;;;;;;19.93;10.00;;;;;;;0.71;77.29;96672.09;1771185;81;21494;-66
2021/12/15 09:28:19;;;;;;;21.20;10.83;;;;;;;0.74;77.43;96666.59;1769026;80;20969;-68
2021/12/15 09:30:49;;;;;;;17.53;9.27;;;;;;;0.84;77.78;96673.00;1765179;80;21044;-65
2021/12/15 09:33:21;;;;;;;23.17;11.47;;;;;;;0.93;77.53;96664.22;1744187;82;21473;-65
2021/12/15 09:35:49;;;;;;;18.00;10.50;;;;;;;1.00;77.84;96663.61;1743907;82;21457;-65
2021/12/15 09:38:19;;;;;;;16.97;9.10;;;;;;;1.07;77.88;96659.11;1744094;82;21050;-65
2021/12/15 09:40:52;;;;;;;22.60;11.00;;;;;;;1.21;77.31;96659.99;1742992;82;21070;-68
2021/12/15 09:43:19;;;;;;;18.92;10.18;;;;;;;1.41;76.96;96651.19;1743956;82;21019;-63
2021/12/15 09:46:00;;;;;;;14.37;8.33;;;;;;;1.76;76.72;96651.44;1743439;82;21134;-66
2021/12/15 10:05:00;;;;;;;17.87;10.20;;;;;;;3.72;68.29;96612.23;1729113;82;21108;-68
2021/12/15 10:10:40;;;;;;;19.00;11.60;;;;;;;3.88;67.50;96610.03;1734903;82;21003;-68
2021/12/15 10:18:42;;;;;;;18.63;11.17;;;;;;;4.74;64.81;96596.22;1737945;82;21030;-68
2021/12/15 10:21:03;;;;;;;15.13;9.20;;;;;;;4.91;64.50;96598.27;1735884;82;21057;-69
2021/12/15 10:23:40;;;;;;;16.03;9.30;;;;;;;5.18;63.76;96605.33;1737612;82;21076;-68
2021/12/15 10:26:07;;;;;;;15.37;8.60;;;;;;;5.20;61.75;96604.94;1737529;82;21508;-68
2021/12/15 10:28:38;;;;;;;21.53;10.30;;;;;;;5.46;61.36;96604.52;1738363;82;21054;-67
2021/12/15 10:31:12;;;;;;;16.75;8.80;;;;;;;5.65;60.30;96600.50;1737936;82;21544;-68
2021/12/15 10:33:55;;;;;;;13.43;7.35;;;;;;;5.79;58.81;96597.66;1738157;82;20982;-68
2021/12/15 10:36:27;;;;;;;15.03;7.80;;;;;;;5.92;58.57;96591.30;1738202;82;21062;-69
2021/12/15 10:38:57;;;;;;;9.88;5.75;;;;;;;5.83;56.50;96592.93;1738314;82;21042;-68
2021/12/15 10:41:37;;;;;;;10.55;6.60;;;;;;;5.94;56.93;96589.19;1738325;82;20995;-68
2021/12/15 10:44:12;;;;;;;8.70;5.72;;;;;;;6.17;56.70;96588.22;1737919;82;20990;-68
2021/12/15 10:46:49;;;;;;;11.22;7.25;;;;;;;6.24;53.14;96588.77;1738126;82;21525;-68
2021/12/15 10:49:27;;;;;;;11.48;7.20;;;;;;;6.36;54.32;96584.57;1737505;82;21037;-68
2021/12/15 10:52:12;;;;;;;10.55;7.03;;;;;;;6.47;54.65;96579.90;1732542;81;21026;-67
2021/12/15 10:54:46;;;;;;;13.05;7.65;;;;;;;6.55;53.52;96587.89;1708796;83;20992;-68
2021/12/15 10:57:21;;;;;;;14.65;8.30;;;;;;;6.44;52.68;96581.17;1706383;84;21016;-68
2021/12/15 10:59:53;;;;;;;13.68;7.90;;;;;;;6.31;54.13;96577.08;1707078;84;21051;-67
2021/12/15 11:02:25;;;;;;;14.35;9.48;;;;;;;5.91;54.99;96589.55;1706871;84;21015;-68
2021/12/15 11:04:56;;;;;;;14.45;7.60;;;;;;;5.47;56.58;96597.55;1705218;84;21540;-69
2021/12/15 11:07:43;;;;;;;14.50;8.23;;;;;;;5.46;57.08;96596.67;1706104;83;21028;-68
2021/12/15 11:10:32;;;;;;;12.95;8.23;;;;;;;5.29;56.70;96599.02;1706110;83;21019;-68
2021/12/15 11:13:12;;;;;;;13.32;7.95;;;;;;;5.47;57.51;96598.45;1706049;84;21019;-68
2021/12/15 11:15:51;;;;;;;18.20;10.43;;;;;;;5.61;56.24;96593.00;1706035;84;21003;-68
2021/12/15 11:18:28;;;;;;;16.37;9.68;;;;;;;5.73;55.66;96593.64;1706023;84;21493;-68
2021/12/15 11:21:00;;;;;;;14.47;9.13;;;;;;;5.96;56.15;96578.31;1706813;84;21011;-67
2021/12/15 11:23:32;;;;;;;16.27;8.40;;;;;;;6.14;55.80;96588.19;1706882;84;20985;-67
2021/12/15 11:26:05;;;;;;;14.28;8.45;;;;;;;6.03;55.39;96588.03;1706665;83;21612;-67
2021/12/15 11:28:34;;;;;;;;;;;;;;;5.95;54.60;96590.97;1709442;84;21028;-67
2021/12/15 11:31:11;;;;;;;12.15;7.72;;;;;;;5.81;55.61;96589.40;1706811;83;20474;-67
2021/12/15 11:33:45;;;;;;;10.50;6.62;;;;;;;5.75;55.82;96592.37;1706755;84;21015;-67
2021/12/15 11:36:26;;;;;;;10.20;6.22;;;;;;;5.57;54.81;96589.02;1706796;84;21031;-67
2021/12/15 11:39:16;;;;;;;9.35;5.83;;;;;;;5.44;56.22;96583.98;1707021;84;20992;-68
2021/12/15 11:41:50;;;;;;;10.75;6.47;;;;;;;5.33;55.81;96586.42;1706939;84;21048;-68
2021/12/15 11:44:22;;;;;;;9.45;5.37;;;;;;;5.07;57.61;96588.58;1706896;84;20995;-67
2021/12/15 11:47:03;;;;;;;14.63;7.47;;;;;;;4.99;57.38;96589.73;1706485;83;21020;-67
2021/12/15 11:49:37;;;;;;;11.30;6.73;;;;;;;5.03;58.05;96590.66;1706825;83;21015;-66
2021/12/15 11:52:14;;;;;;;10.37;6.53;;;;;;;5.07;57.70;96593.80;1714799;83;21532;-67
2021/12/15 11:54:49;;;;;;;9.07;5.10;;;;;;;4.73;58.30;96590.52;1727576;83;21020;-67
2021/12/15 11:57:23;;;;;;;9.97;5.57;;;;;;;4.57;58.47;96596.30;1733899;82;21057;-66
2021/12/15 11:59:59;;;;;;;9.47;5.40;;;;;;;4.55;59.90;96601.48;1738097;82;21010;-67
2021/12/15 12:02:33;;;;;;;8.77;4.70;;;;;;;4.87;59.14;96599.09;1737858;82;21022;-67
2021/12/15 12:05:11;;;;;;;9.13;4.57;;;;;;;5.17;58.31;96595.73;1738229;82;20983;-67
2021/12/15 12:07:45;;;;;;;7.47;4.10;;;;;;;5.13;57.29;96599.14;1737483;82;21473;-67
2021/12/15 12:10:27;;;;;;;7.23;4.80;;;;;;;5.26;57.89;96595.01;1738123;82;21433;-67
2021/12/15 12:13:04;;;;;;;8.50;4.77;;;;;;;5.24;57.48;96599.36;1737896;82;21496;-67
2021/12/15 12:15:28;;;;;;;8.70;5.37;;;;;;;5.08;58.13;96598.17;1736648;82;21466;-67
2021/12/15 12:18:00;;;;;;;13.87;6.40;;;;;;;4.90;58.23;96611.78;1738021;82;21006;-67
2021/12/15 12:20:30;;;;;;;7.40;4.60;;;;;;;4.72;58.71;96608.81;1738111;82;21070;-66
2021/12/15 12:23:00;;;;;;;8.30;4.90;;;;;;;4.38;59.79;96614.61;1738083;82;20993;-66
2021/12/15 12:25:34;;;;;;;12.67;6.43;;;;;;;4.20;60.02;96612.91;1738108;82;21030;-67
2021/12/15 12:28:01;;;;;;;11.00;5.47;;;;;;;4.02;60.77;96615.98;1738115;81;21014;-66
2021/12/15 12:30:36;;;;;;;11.27;5.83;;;;;;;3.73;61.25;96614.89;1738137;82;20983;-66
2021/12/15 12:33:08;;;;;;;11.93;7.50;;;;;;;3.35;62.65;96626.55;1738115;82;21041;-66
2021/12/15 12:35:34;;;;;;;10.80;7.10;;;;;;;3.10;63.13;96630.64;1737858;82;21002;-67
2021/12/15 12:38:17;;;;;;;13.37;8.27;;;;;;;3.24;63.02;96641.03;1738099;82;21472;-67
2021/12/15 12:40:53;;;;;;;14.73;9.03;;;;;;;3.27;63.22;96640.22;1738300;82;21034;-66
2021/12/15 12:43:30;;;;;;;13.73;7.40;;;;;;;2.96;63.55;96636.80;1738339;82;20979;-67
2021/12/15 12:46:14;;;;;;;13.73;6.73;;;;;;;2.74;64.63;96638.79;1738096;82;21002;-67
2021/12/15 13:00:31;;;;;;;14.07;8.20;;;;;;;2.35;65.31;96653.73;1738230;82;21010;-66